sensor_id;sensor_type;location;lat;lon;timestamp;pressure;altitude;pressure_sealevel;temperature;humidity
51972;BME280;37991;49.662;10.060;2022-10-16T00:01:36;99123.34;;;14.07;100.00
51972;BME280;37991;49.662;10.060;2022-10-16T00:04:02;99119.59;;;14.10;100.00
51972;BME280;37991;49.662;10.060;2022-10-16T00:06:29;99120.72;;;14.07;100.00
51972;BME280;37991;49.662;10.060;2022-10-16T00:08:55;99123.75;;;14.12;100.00
51972;BME280;37991;49.662;10.060;2022-10-16T00:11:26;99116.69;;;14.13;100.00
51972;BME280;37991;49.662;10.060;2022-10-16T00:13:57;99109.19;;;14.08;100.00
51972;BME280;37991;49.662;10.060;2022-10-16T00:16:22;99107.09;;;14.02;100.00
51972;BME280;37991;49.662;10.060;2022-10-16T00:18:48;99121.50;;;13.98;100.00
51972;BME280;37991;49.662;10.060;2022-10-16T00:21:16;99136.34;;;13.99;100.00
51972;BME280;37991;49.662;10.060;2022-10-16T00:23:42;99133.25;;;13.94;100.00
51972;BME280;37991;49.662;10.060;2022-10-16T00:26:10;99128.84;;;13.94;100.00
51972;BME280;37991;49.662;10.060;2022-10-16T00:28:36;99122.59;;;13.95;100.00
51972;BME280;37991;49.662;10.060;2022-10-16T00:31:06;99121.25;;;14.01;100.00
51972;BME280;37991;49.662;10.060;2022-10-16T00:33:33;99130.81;;;14.02;100.00
51972;BME280;37991;49.662;10.060;2022-10-16T00:36:00;99122.19;;;14.00;100.00
51972;BME280;37991;49.662;10.060;2022-10-16T00:38:26;99108.16;;;13.90;100.00
51972;BME280;37991;49.662;10.060;2022-10-16T00:40:51;99102.78;;;13.91;100.00
51972;BME280;37991;49.662;10.060;2022-10-16T00:46:19;99100.56;;;13.96;100.00
51972;BME280;37991;49.662;10.060;2022-10-16T00:48:57;99108.47;;;13.96;100.00
51972;BME280;37991;49.662;10.060;2022-10-16T00:51:30;99112.63;;;13.99;100.00
51972;BME280;37991;49.662;10.060;2022-10-16T00:53:56;99118.16;;;13.96;100.00
51972;BME280;37991;49.662;10.060;2022-10-16T00:56:21;99118.44;;;13.93;100.00
51972;BME280;37991;49.662;10.060;2022-10-16T00:58:47;99127.03;;;13.95;100.00
51972;BME280;37991;49.662;10.060;2022-10-16T01:01:12;99123.69;;;13.93;100.00
51972;BME280;37991;49.662;10.060;2022-10-16T01:03:38;99133.53;;;13.91;100.00
51972;BME280;37991;49.662;10.060;2022-10-16T01:06:21;99133.66;;;13.89;100.00
51972;BME280;37991;49.662;10.060;2022-10-16T01:11:33;99143.63;;;13.86;100.00
51972;BME280;37991;49.662;10.060;2022-10-16T01:14:06;99145.03;;;13.90;100.00
51972;BME280;37991;49.662;10.060;2022-10-16T01:19:12;99145.75;;;13.92;100.00
51972;BME280;37991;49.662;10.060;2022-10-16T01:21:43;99150.47;;;13.98;100.00
51972;BME280;37991;49.662;10.060;2022-10-16T01:24:31;99153.94;;;13.99;100.00
51972;BME280;37991;49.662;10.060;2022-10-16T01:29:55;99140.09;;;14.06;100.00
51972;BME280;37991;49.662;10.060;2022-10-16T01:32:32;99130.38;;;14.07;100.00
51972;BME280;37991;49.662;10.060;2022-10-16T01:35:04;99144.00;;;14.12;100.00
51972;BME280;37991;49.662;10.060;2022-10-16T01:37:50;99141.94;;;14.15;100.00
51972;BME280;37991;49.662;10.060;2022-10-16T01:40:19;99146.94;;;14.18;100.00
51972;BME280;37991;49.662;10.060;2022-10-16T01:42:53;99148.31;;;14.23;100.00
51972;BME280;37991;49.662;10.060;2022-10-16T01:45:20;99143.59;;;14.26;100.00
51972;BME280;37991;49.662;10.060;2022-10-16T01:47:47;99136.56;;;14.27;100.00
51972;BME280;37991;49.662;10.060;2022-10-16T01:50:16;99153.75;;;14.31;100.00
51972;BME280;37991;49.662;10.060;2022-10-16T01:52:45;99159.56;;;14.25;100.00
51972;BME280;37991;49.662;10.060;2022-10-16T01:55:15;99166.75;;;14.23;100.00
51972;BME280;37991;49.662;10.060;2022-10-16T01:57:44;99173.72;;;14.24;100.00
51972;BME280;37991;49.662;10.060;2022-10-16T02:00:13;99161.94;;;14.37;100.00
51972;BME280;37991;49.662;10.060;2022-10-16T02:02:44;99166.47;;;14.26;100.00
51972;BME280;37991;49.662;10.060;2022-10-16T02:05:15;99169.81;;;14.18;100.00
51972;BME280;37991;49.662;10.060;2022-10-16T02:07:43;99164.09;;;14.13;100.00
51972;BME280;37991;49.662;10.060;2022-10-16T02:10:10;99152.91;;;14.21;100.00
51972;BME280;37991;49.662;10.060;2022-10-16T02:12:38;99155.28;;;14.24;100.00
51972;BME280;37991;49.662;10.060;2022-10-16T02:15:06;99158.84;;;14.23;100.00
51972;BME280;37991;49.662;10.060;2022-10-16T02:17:32;99157.19;;;14.22;100.00
51972;BME280;37991;49.662;10.060;2022-10-16T02:19:59;99165.81;;;14.24;100.00
51972;BME280;37991;49.662;10.060;2022-10-16T02:22:28;99164.69;;;14.26;100.00
51972;BME280;37991;49.662;10.060;2022-10-16T02:25:22;99156.22;;;14.23;100.00
51972;BME280;37991;49.662;10.060;2022-10-16T02:28:01;99160.94;;;14.19;100.00
51972;BME280;37991;49.662;10.060;2022-10-16T02:30:38;99165.50;;;14.17;100.00
51972;BME280;37991;49.662;10.060;2022-10-16T02:33:08;99174.06;;;14.09;100.00
51972;BME280;37991;49.662;10.060;2022-10-16T02:35:35;99167.00;;;14.10;100.00
51972;BME280;37991;49.662;10.060;2022-10-16T02:38:02;99168.81;;;14.09;100.00
51972;BME280;37991;49.662;10.060;2022-10-16T02:40:28;99169.06;;;14.06;100.00
51972;BME280;37991;49.662;10.060;2022-10-16T02:42:55;99175.31;;;14.05;100.00
51972;BME280;37991;49.662;10.060;2022-10-16T02:45:21;99170.75;;;14.07;100.00
51972;BME280;37991;49.662;10.060;2022-10-16T02:47:47;99176.59;;;14.11;100.00
51972;BME280;37991;49.662;10.060;2022-10-16T02:50:13;99173.38;;;14.07;100.00
51972;BME280;37991;49.662;10.060;2022-10-16T02:52:39;99179.75;;;14.05;100.00
51972;BME280;37991;49.662;10.060;2022-10-16T02:55:04;99178.78;;;14.06;100.00
51972;BME280;37991;49.662;10.060;2022-10-16T02:57:30;99176.97;;;14.06;100.00
51972;BME280;37991;49.662;10.060;2022-10-16T02:59:56;99177.78;;;14.07;100.00
51972;BME280;37991;49.662;10.060;2022-10-16T03:02:21;99179.88;;;14.03;100.00
51972;BME280;37991;49.662;10.060;2022-10-16T03:04:46;99175.44;;;14.04;100.00
51972;BME280;37991;49.662;10.060;2022-10-16T03:07:12;99171.03;;;14.04;100.00
51972;BME280;37991;49.662;10.060;2022-10-16T03:09:37;99177.13;;;14.05;100.00
51972;BME280;37991;49.662;10.060;2022-10-16T03:12:03;99174.22;;;14.08;100.00
51972;BME280;37991;49.662;10.060;2022-10-16T03:14:28;99166.44;;;14.06;100.00
51972;BME280;37991;49.662;10.060;2022-10-16T03:16:54;99168.69;;;14.11;100.00
51972;BME280;37991;49.662;10.060;2022-10-16T03:19:19;99176.59;;;14.11;100.00
51972;BME280;37991;49.662;10.060;2022-10-16T03:21:45;99176.16;;;14.15;100.00
51972;BME280;37991;49.662;10.060;2022-10-16T03:24:10;99177.81;;;14.16;100.00
51972;BME280;37991;49.662;10.060;2022-10-16T03:26:36;99168.81;;;14.09;100.00
51972;BME280;37991;49.662;10.060;2022-10-16T03:29:01;99167.97;;;14.09;100.00
51972;BME280;37991;49.662;10.060;2022-10-16T03:31:29;99177.53;;;14.10;100.00
51972;BME280;37991;49.662;10.060;2022-10-16T03:33:54;99172.53;;;14.07;100.00
51972;BME280;37991;49.662;10.060;2022-10-16T03:36:20;99182.13;;;14.08;100.00
51972;BME280;37991;49.662;10.060;2022-10-16T03:38:45;99174.22;;;14.08;100.00
51972;BME280;37991;49.662;10.060;2022-10-16T03:41:11;99181.56;;;14.04;100.00
51972;BME280;37991;49.662;10.060;2022-10-16T03:43:36;99174.22;;;14.08;100.00
51972;BME280;37991;49.662;10.060;2022-10-16T03:46:01;99181.97;;;14.09;100.00
51972;BME280;37991;49.662;10.060;2022-10-16T03:48:27;99183.78;;;14.09;100.00
51972;BME280;37991;49.662;10.060;2022-10-16T03:50:52;99169.63;;;14.10;100.00
51972;BME280;37991;49.662;10.060;2022-10-16T03:53:18;99167.41;;;14.05;100.00
51972;BME280;37991;49.662;10.060;2022-10-16T03:55:44;99172.53;;;14.07;100.00
51972;BME280;37991;49.662;10.060;2022-10-16T03:58:10;99174.34;;;14.06;100.00
51972;BME280;37991;49.662;10.060;2022-10-16T04:00:36;99172.53;;;14.07;100.00
51972;BME280;37991;49.662;10.060;2022-10-16T04:03:04;99175.03;;;14.08;100.00
51972;BME280;37991;49.662;10.060;2022-10-16T04:05:29;99181.13;;;14.09;100.00
51972;BME280;37991;49.662;10.060;2022-10-16T04:07:55;99175.03;;;14.08;100.00
51972;BME280;37991;49.662;10.060;2022-10-16T04:10:20;99185.44;;;14.10;100.00
51972;BME280;37991;49.662;10.060;2022-10-16T04:12:45;99189.47;;;14.04;100.00
51972;BME280;37991;49.662;10.060;2022-10-16T04:15:11;99190.03;;;14.08;100.00
51972;BME280;37991;49.662;10.060;2022-10-16T04:17:36;99187.66;;;14.05;100.00
51972;BME280;37991;49.662;10.060;2022-10-16T04:20:02;99190.41;;;14.03;100.00
51972;BME280;37991;49.662;10.060;2022-10-16T04:22:28;99196.66;;;14.02;100.00
51972;BME280;37991;49.662;10.060;2022-10-16T04:24:53;99208.16;;;14.01;100.00
51972;BME280;37991;49.662;10.060;2022-10-16T04:27:19;99201.91;;;14.02;100.00
51972;BME280;37991;49.662;10.060;2022-10-16T04:29:44;99203.84;;;14.00;100.00
51972;BME280;37991;49.662;10.060;2022-10-16T04:32:10;99205.59;;;13.90;100.00
51972;BME280;37991;49.662;10.060;2022-10-16T04:34:35;99204.34;;;13.94;100.00
51972;BME280;37991;49.662;10.060;2022-10-16T04:37:01;99201.72;;;13.94;100.00
51972;BME280;37991;49.662;10.060;2022-10-16T04:39:26;99207.13;;;13.92;100.00
51972;BME280;37991;49.662;10.060;2022-10-16T04:41:51;99201.69;;;13.84;100.00
51972;BME280;37991;49.662;10.060;2022-10-16T04:44:17;99216.13;;;13.90;100.00
51972;BME280;37991;49.662;10.060;2022-10-16T04:46:42;99210.88;;;13.90;100.00
51972;BME280;37991;49.662;10.060;2022-10-16T04:49:07;99216.97;;;13.90;100.00
51972;BME280;37991;49.662;10.060;2022-10-16T04:51:33;99201.03;;;13.92;100.00
51972;BME280;37991;49.662;10.060;2022-10-16T04:53:58;99211.31;;;13.95;100.00
51972;BME280;37991;49.662;10.060;2022-10-16T04:56:24;99220.03;;;13.95;100.00
51972;BME280;37991;49.662;10.060;2022-10-16T04:58:49;99227.13;;;13.95;100.00
51972;BME280;37991;49.662;10.060;2022-10-16T05:01:15;99235.00;;;13.95;100.00
51972;BME280;37991;49.662;10.060;2022-10-16T05:03:40;99240.53;;;13.92;100.00
51972;BME280;37991;49.662;10.060;2022-10-16T05:06:06;99242.09;;;13.94;100.00
51972;BME280;37991;49.662;10.060;2022-10-16T05:08:32;99242.09;;;13.94;100.00
51972;BME280;37991;49.662;10.060;2022-10-16T05:10:57;99241.47;;;13.91;100.00
51972;BME280;37991;49.662;10.060;2022-10-16T05:13:23;99240.53;;;13.92;100.00
51972;BME280;37991;49.662;10.060;2022-10-16T05:15:49;99239.56;;;13.93;100.00
51972;BME280;37991;49.662;10.060;2022-10-16T05:18:15;99239.56;;;13.93;100.00
51972;BME280;37991;49.662;10.060;2022-10-16T05:20:41;99230.94;;;13.91;100.00
51972;BME280;37991;49.662;10.060;2022-10-16T05:23:07;99225.84;;;13.89;100.00
51972;BME280;37991;49.662;10.060;2022-10-16T05:25:32;99244.38;;;13.88;100.00
51972;BME280;37991;49.662;10.060;2022-10-16T05:27:57;99243.19;;;13.92;100.00
51972;BME280;37991;49.662;10.060;2022-10-16T05:30:23;99242.09;;;13.94;100.00
51972;BME280;37991;49.662;10.060;2022-10-16T05:32:49;99234.31;;;13.93;100.00
51972;BME280;37991;49.662;10.060;2022-10-16T05:35:16;99239.00;;;13.89;100.00
51972;BME280;37991;49.662;10.060;2022-10-16T05:37:43;99232.91;;;13.89;100.00
51972;BME280;37991;49.662;10.060;2022-10-16T05:40:09;99232.75;;;13.90;100.00
51972;BME280;37991;49.662;10.060;2022-10-16T05:42:35;99246.63;;;13.92;100.00
51972;BME280;37991;49.662;10.060;2022-10-16T05:45:01;99250.00;;;13.94;100.00
51972;BME280;37991;49.662;10.060;2022-10-16T05:47:26;99255.38;;;13.93;100.00
51972;BME280;37991;49.662;10.060;2022-10-16T05:49:52;99260.78;;;13.91;100.00
51972;BME280;37991;49.662;10.060;2022-10-16T05:52:18;99261.88;;;13.89;100.00
51972;BME280;37991;49.662;10.060;2022-10-16T05:54:43;99258.41;;;13.88;100.00
51972;BME280;37991;49.662;10.060;2022-10-16T05:57:09;99257.44;;;13.89;100.00
51972;BME280;37991;49.662;10.060;2022-10-16T05:59:34;99263.53;;;13.90;100.00
51972;BME280;37991;49.662;10.060;2022-10-16T06:02:00;99253.00;;;13.90;100.00
51972;BME280;37991;49.662;10.060;2022-10-16T06:04:25;99251.19;;;13.90;100.00
51972;BME280;37991;49.662;10.060;2022-10-16T06:06:50;99250.34;;;13.90;100.00
51972;BME280;37991;49.662;10.060;2022-10-16T06:09:16;99259.91;;;13.91;100.00
51972;BME280;37991;49.662;10.060;2022-10-16T06:11:41;99263.53;;;13.90;100.00
51972;BME280;37991;49.662;10.060;2022-10-16T06:14:08;99274.78;;;13.92;100.00
51972;BME280;37991;49.662;10.060;2022-10-16T06:16:35;99290.44;;;13.93;100.00
51972;BME280;37991;49.662;10.060;2022-10-16T06:19:01;99284.22;;;13.94;100.00
51972;BME280;37991;49.662;10.060;2022-10-16T06:21:28;99278.94;;;13.94;100.00
51972;BME280;37991;49.662;10.060;2022-10-16T06:23:55;99273.53;;;13.96;100.00
51972;BME280;37991;49.662;10.060;2022-10-16T06:26:23;99278.81;;;13.96;100.00
51972;BME280;37991;49.662;10.060;2022-10-16T06:28:49;99277.84;;;13.97;100.00
51972;BME280;37991;49.662;10.060;2022-10-16T06:31:16;99280.47;;;13.97;100.00
51972;BME280;37991;49.662;10.060;2022-10-16T06:33:42;99283.81;;;13.99;100.00
51972;BME280;37991;49.662;10.060;2022-10-16T06:36:16;99289.81;;;14.01;100.00
51972;BME280;37991;49.662;10.060;2022-10-16T06:38:43;99298.38;;;14.03;100.00
51972;BME280;37991;49.662;10.060;2022-10-16T06:41:11;99302.72;;;14.04;100.00
51972;BME280;37991;49.662;10.060;2022-10-16T06:43:37;99302.56;;;14.06;100.00
51972;BME280;37991;49.662;10.060;2022-10-16T06:46:04;99294.28;;;14.10;100.00
51972;BME280;37991;49.662;10.060;2022-10-16T06:48:30;99290.53;;;14.13;100.00
51972;BME280;37991;49.662;10.060;2022-10-16T06:51:06;99293.16;;;14.13;100.00
51972;BME280;37991;49.662;10.060;2022-10-16T06:53:35;99299.00;;;14.16;100.00
51972;BME280;37991;49.662;10.060;2022-10-16T06:56:11;99303.19;;;14.19;100.00
51972;BME280;37991;49.662;10.060;2022-10-16T06:58:37;99303.63;;;14.24;100.00
51972;BME280;37991;49.662;10.060;2022-10-16T07:01:05;99303.47;;;14.26;100.00
51972;BME280;37991;49.662;10.060;2022-10-16T07:03:30;99305.84;;;14.29;100.00
51972;BME280;37991;49.662;10.060;2022-10-16T07:05:56;99306.56;;;14.31;100.00
51972;BME280;37991;49.662;10.060;2022-10-16T07:08:22;99317.81;;;14.33;100.00
51972;BME280;37991;49.662;10.060;2022-10-16T07:10:47;99309.66;;;14.36;100.00
51972;BME280;37991;49.662;10.060;2022-10-16T07:13:13;99306.47;;;14.42;100.00
51972;BME280;37991;49.662;10.060;2022-10-16T07:15:39;99299.72;;;14.49;100.00
51972;BME280;37991;49.662;10.060;2022-10-16T07:18:05;99303.06;;;14.51;100.00
51972;BME280;37991;49.662;10.060;2022-10-16T07:20:30;99318.88;;;14.51;100.00
51972;BME280;37991;49.662;10.060;2022-10-16T07:22:56;99321.00;;;14.57;100.00
51972;BME280;37991;49.662;10.060;2022-10-16T07:25:21;99326.25;;;14.57;100.00
51972;BME280;37991;49.662;10.060;2022-10-16T07:27:47;99337.53;;;14.59;100.00
51972;BME280;37991;49.662;10.060;2022-10-16T07:30:12;99339.19;;;14.60;100.00
51972;BME280;37991;49.662;10.060;2022-10-16T07:32:37;99346.81;;;14.63;100.00
51972;BME280;37991;49.662;10.060;2022-10-16T07:35:04;99343.81;;;14.68;100.00
51972;BME280;37991;49.662;10.060;2022-10-16T07:37:29;99343.38;;;14.73;100.00
51972;BME280;37991;49.662;10.060;2022-10-16T07:39:54;99354.13;;;14.81;100.00
51972;BME280;37991;49.662;10.060;2022-10-16T07:42:20;99350.50;;;14.82;100.00
51972;BME280;37991;49.662;10.060;2022-10-16T07:44:48;99342.59;;;14.82;100.00
51972;BME280;37991;49.662;10.060;2022-10-16T07:47:13;99351.78;;;14.87;100.00
51972;BME280;37991;49.662;10.060;2022-10-16T07:49:39;99357.06;;;14.87;100.00
51972;BME280;37991;49.662;10.060;2022-10-16T07:52:05;99365.25;;;14.94;100.00
51972;BME280;37991;49.662;10.060;2022-10-16T07:54:30;99365.94;;;14.96;100.00
51972;BME280;37991;49.662;10.060;2022-10-16T07:56:55;99366.09;;;14.95;100.00
51972;BME280;37991;49.662;10.060;2022-10-16T07:59:21;99370.00;;;15.00;100.00
51972;BME280;37991;49.662;10.060;2022-10-16T08:01:46;99375.41;;;15.08;100.00
51972;BME280;37991;49.662;10.060;2022-10-16T08:04:11;99379.31;;;15.14;100.00
51972;BME280;37991;49.662;10.060;2022-10-16T08:06:39;99388.34;;;15.21;100.00
51972;BME280;37991;49.662;10.060;2022-10-16T08:09:08;99386.16;;;15.26;100.00
51972;BME280;37991;49.662;10.060;2022-10-16T08:11:34;99377.69;;;15.32;100.00
51972;BME280;37991;49.662;10.060;2022-10-16T08:13:59;99380.88;;;15.36;100.00
51972;BME280;37991;49.662;10.060;2022-10-16T08:16:25;99376.16;;;15.40;100.00
51972;BME280;37991;49.662;10.060;2022-10-16T08:18:50;99382.44;;;15.39;100.00
51972;BME280;37991;49.662;10.060;2022-10-16T08:21:23;99378.69;;;15.41;100.00
51972;BME280;37991;49.662;10.060;2022-10-16T08:23:49;99379.53;;;15.42;100.00
51972;BME280;37991;49.662;10.060;2022-10-16T08:26:15;99385.75;;;15.50;100.00
51972;BME280;37991;49.662;10.060;2022-10-16T08:28:40;99389.38;;;15.49;100.00
51972;BME280;37991;49.662;10.060;2022-10-16T08:31:10;99388.97;;;15.54;100.00
51972;BME280;37991;49.662;10.060;2022-10-16T08:33:37;99400.38;;;15.54;100.00
51972;BME280;37991;49.662;10.060;2022-10-16T08:36:04;99399.94;;;15.59;100.00
51972;BME280;37991;49.662;10.060;2022-10-16T08:38:29;99402.31;;;15.62;100.00
51972;BME280;37991;49.662;10.060;2022-10-16T08:49:13;99415.16;;;15.76;100.00
51972;BME280;37991;49.662;10.060;2022-10-16T08:51:39;99427.09;;;15.80;100.00
51972;BME280;37991;49.662;10.060;2022-10-16T08:56:46;99423.19;;;15.94;100.00
51972;BME280;37991;49.662;10.060;2022-10-16T08:59:14;99420.16;;;15.99;100.00
51972;BME280;37991;49.662;10.060;2022-10-16T09:01:44;99425.44;;;15.99;100.00
51972;BME280;37991;49.662;10.060;2022-10-16T09:09:56;99426.94;;;16.01;100.00
51972;BME280;37991;49.662;10.060;2022-10-16T09:15:58;99427.50;;;16.15;100.00
51972;BME280;37991;49.662;10.060;2022-10-16T09:18:36;99437.53;;;16.21;100.00
51972;BME280;37991;49.662;10.060;2022-10-16T09:21:15;99431.25;;;16.22;100.00
51972;BME280;37991;49.662;10.060;2022-10-16T09:23:43;99430.00;;;16.26;100.00
51972;BME280;37991;49.662;10.060;2022-10-16T09:26:11;99435.69;;;16.31;100.00
51972;BME280;37991;49.662;10.060;2022-10-16T09:28:37;99431.78;;;16.35;100.00
51972;BME280;37991;49.662;10.060;2022-10-16T09:31:03;99442.22;;;16.46;100.00
51972;BME280;37991;49.662;10.060;2022-10-16T09:33:32;99435.81;;;16.39;100.00
51972;BME280;37991;49.662;10.060;2022-10-16T09:35:58;99442.50;;;16.43;100.00
51972;BME280;37991;49.662;10.060;2022-10-16T09:38:32;99440.81;;;16.42;100.00
51972;BME280;37991;49.662;10.060;2022-10-16T09:41:00;99443.16;;;16.45;100.00
51972;BME280;37991;49.662;10.060;2022-10-16T09:43:40;99446.34;;;16.49;100.00
51972;BME280;37991;49.662;10.060;2022-10-16T09:46:09;99446.91;;;16.52;100.00
51972;BME280;37991;49.662;10.060;2022-10-16T09:48:49;99448.03;;;16.50;100.00
51972;BME280;37991;49.662;10.060;2022-10-16T09:51:44;99446.91;;;16.52;100.00
51972;BME280;37991;49.662;10.060;2022-10-16T09:56:36;99437.56;;;16.58;100.00
51972;BME280;37991;49.662;10.060;2022-10-16T09:59:11;99443.41;;;16.62;100.00
51972;BME280;37991;49.662;10.060;2022-10-16T10:01:46;99452.03;;;16.64;100.00
51972;BME280;37991;49.662;10.060;2022-10-16T10:04:12;99451.88;;;16.65;100.00
51972;BME280;37991;49.662;10.060;2022-10-16T10:06:44;99449.81;;;16.69;100.00
51972;BME280;37991;49.662;10.060;2022-10-16T10:12:02;99453.81;;;16.73;100.00
51972;BME280;37991;49.662;10.060;2022-10-16T10:14:38;99460.38;;;16.79;100.00
51972;BME280;37991;49.662;10.060;2022-10-16T10:19:42;99468.28;;;16.88;100.00
51972;BME280;37991;49.662;10.060;2022-10-16T10:35:41;99447.53;;;17.49;100.00
51972;BME280;37991;49.662;10.060;2022-10-16T10:38:24;99440.94;;;17.71;100.00
51972;BME280;37991;49.662;10.060;2022-10-16T10:41:53;99444.47;;;17.89;100.00
51972;BME280;37991;49.662;10.060;2022-10-16T10:47:22;99527.25;;;18.01;100.00
51972;BME280;37991;49.662;10.060;2022-10-16T10:53:16;99521.47;;;17.60;100.00
51972;BME280;37991;49.662;10.060;2022-10-16T10:55:51;99517.44;;;17.56;100.00
51972;BME280;37991;49.662;10.060;2022-10-16T11:06:18;99518.97;;;17.58;100.00
51972;BME280;37991;49.662;10.060;2022-10-16T11:12:00;99505.88;;;17.57;100.00
51972;BME280;37991;49.662;10.060;2022-10-16T11:17:28;99497.78;;;17.58;100.00
51972;BME280;37991;49.662;10.060;2022-10-16T11:20:13;99500.69;;;17.65;100.00
51972;BME280;37991;49.662;10.060;2022-10-16T11:22:51;99504.88;;;17.85;100.00
51972;BME280;37991;49.662;10.060;2022-10-16T11:25:23;99504.09;;;17.75;100.00
51972;BME280;37991;49.662;10.060;2022-10-16T11:35:53;99484.63;;;17.66;100.00
51972;BME280;37991;49.662;10.060;2022-10-16T11:38:36;99483.63;;;17.77;100.00
51972;BME280;37991;49.662;10.060;2022-10-16T11:41:13;99479.31;;;17.66;100.00
51972;BME280;37991;49.662;10.060;2022-10-16T11:43:50;99479.50;;;17.83;100.00
51972;BME280;37991;49.662;10.060;2022-10-16T11:46:20;99473.56;;;17.81;100.00
51972;BME280;37991;49.662;10.060;2022-10-16T11:51:42;99464.25;;;17.67;100.00
51972;BME280;37991;49.662;10.060;2022-10-16T11:57:07;99472.72;;;17.71;100.00
51972;BME280;37991;49.662;10.060;2022-10-16T12:02:30;99474.38;;;17.81;100.00
51972;BME280;37991;49.662;10.060;2022-10-16T12:05:12;99467.78;;;17.85;100.00
51972;BME280;37991;49.662;10.060;2022-10-16T12:07:51;99466.66;;;17.88;100.00
51972;BME280;37991;49.662;10.060;2022-10-16T12:10:25;99473.16;;;18.11;100.00
51972;BME280;37991;49.662;10.060;2022-10-16T12:12:51;99458.03;;;18.04;100.00
51972;BME280;37991;49.662;10.060;2022-10-16T12:15:28;99460.69;;;18.04;100.00
51972;BME280;37991;49.662;10.060;2022-10-16T12:17:54;99452.72;;;18.04;100.00
51972;BME280;37991;49.662;10.060;2022-10-16T12:20:28;99439.69;;;18.10;100.00
51972;BME280;37991;49.662;10.060;2022-10-16T12:22:58;99442.78;;;18.06;100.00
51972;BME280;37991;49.662;10.060;2022-10-16T12:25:36;99454.25;;;18.06;100.00
51972;BME280;37991;49.662;10.060;2022-10-16T12:30:42;99443.66;;;18.06;100.00
51972;BME280;37991;49.662;10.060;2022-10-16T12:33:24;99440.13;;;18.06;100.00
51972;BME280;37991;49.662;10.060;2022-10-16T12:35:50;99445.13;;;18.09;100.00
51972;BME280;37991;49.662;10.060;2022-10-16T12:38:19;99446.81;;;18.10;100.00
51972;BME280;37991;49.662;10.060;2022-10-16T12:40:55;99442.34;;;18.10;100.00
51972;BME280;37991;49.662;10.060;2022-10-16T12:43:26;99443.88;;;18.13;100.00
51972;BME280;37991;49.662;10.060;2022-10-16T12:46:41;99444.22;;;18.18;100.00
51972;BME280;37991;49.662;10.060;2022-10-16T12:48:47;99454.69;;;18.20;100.00
51972;BME280;37991;49.662;10.060;2022-10-16T12:56:38;99448.47;;;18.29;100.00
51972;BME280;37991;49.662;10.060;2022-10-16T12:59:16;99458.91;;;18.30;100.00
51972;BME280;37991;49.662;10.060;2022-10-16T13:04:39;99458.16;;;18.38;100.00
51972;BME280;37991;49.662;10.060;2022-10-16T13:10:19;99453.38;;;18.42;100.00
51972;BME280;37991;49.662;10.060;2022-10-16T13:18:15;99460.84;;;18.46;100.00
51972;BME280;37991;49.662;10.060;2022-10-16T13:23:29;99447.44;;;18.48;100.00
51972;BME280;37991;49.662;10.060;2022-10-16T13:26:33;99452.25;;;18.52;100.00
51972;BME280;37991;49.662;10.060;2022-10-16T13:29:01;99464.38;;;18.55;100.00
51972;BME280;37991;49.662;10.060;2022-10-16T13:31:28;99463.41;;;18.56;100.00
51972;BME280;37991;49.662;10.060;2022-10-16T13:33:57;99472.34;;;18.55;100.00
51972;BME280;37991;49.662;10.060;2022-10-16T13:36:25;99478.97;;;18.51;100.00
51972;BME280;37991;49.662;10.060;2022-10-16T13:39:13;99473.09;;;18.47;100.00
51972;BME280;37991;49.662;10.060;2022-10-16T13:41:40;99461.66;;;18.47;100.00
51972;BME280;37991;49.662;10.060;2022-10-16T13:44:13;99458.06;;;18.48;100.00
51972;BME280;37991;49.662;10.060;2022-10-16T13:46:40;99461.31;;;18.42;100.00
51972;BME280;37991;49.662;10.060;2022-10-16T13:49:13;99466.09;;;18.38;100.00
51972;BME280;37991;49.662;10.060;2022-10-16T13:51:38;99467.06;;;18.37;100.00
51972;BME280;37991;49.662;10.060;2022-10-16T13:54:04;99472.38;;;18.37;100.00
51972;BME280;37991;49.662;10.060;2022-10-16T13:56:32;99472.53;;;18.35;100.00
51972;BME280;37991;49.662;10.060;2022-10-16T13:59:05;99480.50;;;18.35;100.00
51972;BME280;37991;49.662;10.060;2022-10-16T14:04:04;99482.31;;;18.35;100.00
51972;BME280;37991;49.662;10.060;2022-10-16T14:06:30;99485.63;;;18.37;100.00
51972;BME280;37991;49.662;10.060;2022-10-16T14:09:17;99490.78;;;18.39;100.00
51972;BME280;37991;49.662;10.060;2022-10-16T14:11:48;99500.94;;;18.43;100.00
51972;BME280;37991;49.662;10.060;2022-10-16T14:14:14;99501.63;;;18.45;100.00
51972;BME280;37991;49.662;10.060;2022-10-16T14:16:42;99505.78;;;18.48;100.00
51972;BME280;37991;49.662;10.060;2022-10-16T14:19:20;99504.78;;;18.49;100.00
51972;BME280;37991;49.662;10.060;2022-10-16T14:21:47;99509.09;;;18.50;100.00
51972;BME280;37991;49.662;10.060;2022-10-16T14:24:14;99506.44;;;18.50;100.00
51972;BME280;37991;49.662;10.060;2022-10-16T14:26:47;99513.56;;;18.49;100.00
51972;BME280;37991;49.662;10.060;2022-10-16T14:29:17;99512.88;;;18.47;100.00
51972;BME280;37991;49.662;10.060;2022-10-16T14:32:03;99505.78;;;18.48;100.00
51972;BME280;37991;49.662;10.060;2022-10-16T14:34:32;99515.31;;;18.41;100.00
51972;BME280;37991;49.662;10.060;2022-10-16T14:37:21;99522.63;;;18.39;100.00
51972;BME280;37991;49.662;10.060;2022-10-16T14:39:49;99518.28;;;18.38;100.00
51972;BME280;37991;49.662;10.060;2022-10-16T14:42:20;99520.94;;;18.38;100.00
51972;BME280;37991;49.662;10.060;2022-10-16T14:44:48;99523.75;;;18.36;100.00